Time;durP1;ratioP1;P1;durP2;ratioP2;P2;SDS_P1;SDS_P2;PMS_P1;PMS_P2;Temp;Humidity;BMP_temperature;BMP_pressure;BME280_temperature;BME280_humidity;BME280_pressure;Samples;Min_cycle;Max_cycle;Signal;HPM_P1;HPM_P2
2023/08/15 00:00:19;;;;;;;9.60;5.28;;;;;;;18.51;89.93;101262.28;4949770;28;20031;-75
2023/08/15 00:02:46;;;;;;;8.15;5.50;;;;;;;18.49;90.02;101264.50;4919440;29;20051;-76
2023/08/15 00:05:11;;;;;;;10.45;4.53;;;;;;;18.44;89.74;101256.50;4928888;29;20035;-77
2023/08/15 00:07:55;;;;;;;7.43;4.80;;;;;;;18.44;89.81;101264.66;4927944;29;20074;-76
2023/08/15 00:10:21;;;;;;;6.63;5.25;;;;;;;18.41;89.81;101257.09;4914090;29;20489;-75
2023/08/15 00:12:47;;;;;;;6.97;4.53;;;;;;;18.41;89.81;101257.91;4913034;29;20150;-80
2023/08/15 00:15:12;;;;;;;11.55;4.90;;;;;;;18.37;89.61;101256.16;4910572;29;20508;-78
2023/08/15 00:17:39;;;;;;;7.30;5.20;;;;;;;18.38;90.20;101255.03;4913800;29;20115;-77
2023/08/15 00:20:06;;;;;;;11.27;5.72;;;;;;;18.38;91.15;101257.75;4934309;28;20121;-78
2023/08/15 00:22:32;;;;;;;6.32;4.50;;;;;;;18.37;90.49;101258.84;4898424;29;20040;-77
2023/08/15 00:24:58;;;;;;;7.75;5.50;;;;;;;18.39;90.78;101243.88;4935038;29;20040;-77
2023/08/15 00:27:24;;;;;;;5.93;4.65;;;;;;;18.41;91.12;101251.69;4909561;29;20099;-79
2023/08/15 00:29:49;;;;;;;6.45;5.00;;;;;;;18.41;91.08;101246.25;4900151;29;20134;-73
2023/08/15 00:32:15;;;;;;;7.80;4.90;;;;;;;18.42;91.55;101248.66;4928388;29;20035;-77
2023/08/15 00:34:42;;;;;;;6.50;4.47;;;;;;;18.44;91.27;101248.38;4909599;29;20100;-75
2023/08/15 00:37:11;;;;;;;9.10;5.13;;;;;;;18.45;91.22;101244.53;4929672;29;20043;-76
2023/08/15 00:39:38;;;;;;;7.07;5.53;;;;;;;18.45;91.34;101244.53;4902441;29;20046;-76
2023/08/15 00:42:11;;;;;;;10.73;4.82;;;;;;;18.42;91.56;101229.66;4931102;29;20031;-75
2023/08/15 00:44:44;;;;;;;8.27;4.90;;;;;;;18.43;91.70;101233.22;4900729;29;20047;-77
2023/08/15 00:47:12;;;;;;;8.13;5.40;;;;;;;18.42;91.50;101226.16;4910081;29;20437;-75
2023/08/15 00:49:39;;;;;;;7.57;4.38;;;;;;;18.39;91.29;101216.75;4891571;29;20044;-77
2023/08/15 00:52:06;;;;;;;8.43;6.18;;;;;;;18.41;91.42;101228.06;4910923;29;20035;-75
2023/08/15 00:54:32;;;;;;;10.70;6.55;;;;;;;18.40;92.16;101225.69;4925039;29;20135;-75
2023/08/15 00:56:58;;;;;;;6.10;4.55;;;;;;;18.38;91.77;101225.19;4925661;29;20123;-74
2023/08/15 00:59:24;;;;;;;7.63;5.63;;;;;;;18.37;91.93;101221.69;4888910;29;20130;-77
2023/08/15 01:01:49;;;;;;;11.35;5.97;;;;;;;18.33;91.73;101217.97;4929572;29;20043;-75
2023/08/15 01:04:15;;;;;;;9.93;5.63;;;;;;;18.31;91.63;101217.50;4897244;29;20078;-75
2023/08/15 01:06:43;;;;;;;8.30;6.00;;;;;;;18.32;92.08;101221.00;4909130;29;20410;-76
2023/08/15 01:09:09;;;;;;;7.93;4.43;;;;;;;18.28;92.09;101235.16;4915531;29;20109;-76
2023/08/15 01:11:50;;;;;;;5.82;5.10;;;;;;;18.27;92.00;101232.78;4910480;29;20039;-79
2023/08/15 01:14:19;;;;;;;7.55;5.00;;;;;;;18.24;91.76;101236.91;4915630;29;20048;-76
2023/08/15 01:16:48;;;;;;;5.53;4.35;;;;;;;18.25;91.64;101233.09;4916697;29;20103;-72
2023/08/15 01:19:38;;;;;;;9.25;5.70;;;;;;;18.24;91.52;101228.78;4901694;29;20043;-77
2023/08/15 01:22:30;;;;;;;10.93;5.63;;;;;;;18.19;92.18;101228.91;4905413;29;20044;-73
2023/08/15 01:24:56;;;;;;;7.43;5.40;;;;;;;18.19;92.91;101217.25;4897867;29;20071;-76
2023/08/15 01:27:22;;;;;;;10.95;6.65;;;;;;;18.16;93.18;101207.84;4897421;29;20584;-80
2023/08/15 01:29:49;;;;;;;11.25;6.00;;;;;;;18.18;93.28;101202.91;4923939;29;20036;-75
2023/08/15 01:32:36;;;;;;;9.50;6.65;;;;;;;18.18;93.22;101205.63;4914712;29;20034;-77
2023/08/15 01:35:12;;;;;;;7.97;5.85;;;;;;;18.13;92.98;101203.03;4927491;29;20327;-77
2023/08/15 01:37:42;;;;;;;12.77;6.65;;;;;;;18.15;92.63;101216.28;4909146;29;20129;-75
2023/08/15 01:40:10;;;;;;;6.88;5.22;;;;;;;18.11;92.71;101215.31;4889182;29;20561;-76
2023/08/15 01:42:36;;;;;;;9.07;6.20;;;;;;;18.09;92.76;101218.31;4928255;29;20032;-80
2023/08/15 01:45:03;;;;;;;8.73;5.60;;;;;;;18.06;92.56;101215.41;4916457;29;20035;-76
2023/08/15 01:47:32;;;;;;;7.80;5.88;;;;;;;18.06;92.39;101213.50;4924474;29;20042;-77
2023/08/15 01:49:58;;;;;;;9.52;6.25;;;;;;;18.02;92.38;101217.97;4896756;29;20032;-74
2023/08/15 01:52:26;;;;;;;7.32;5.30;;;;;;;18.02;92.63;101212.53;4922459;29;20081;-74
2023/08/15 01:54:52;;;;;;;8.75;4.78;;;;;;;18.01;91.98;101205.50;4893905;29;20042;-76
2023/08/15 01:57:18;;;;;;;7.63;5.57;;;;;;;18.00;92.68;101217.44;4929111;29;20047;-77
2023/08/15 01:59:44;;;;;;;8.65;5.97;;;;;;;17.98;92.47;101222.38;4939612;28;20569;-78
2023/08/15 02:02:10;;;;;;;9.13;5.60;;;;;;;17.97;92.12;101218.06;4927474;28;20027;-77
2023/08/15 02:04:36;;;;;;;11.02;7.07;;;;;;;17.92;93.01;101212.75;4913795;29;20039;-76
2023/08/15 02:07:02;;;;;;;8.90;5.93;;;;;;;17.91;93.11;101213.88;4905958;29;20035;-77
2023/08/15 02:09:28;;;;;;;9.73;6.57;;;;;;;17.93;93.80;101225.19;4898732;29;20135;-78
2023/08/15 02:11:54;;;;;;;10.27;6.43;;;;;;;17.92;93.36;101218.19;4903646;29;20579;-77
2023/08/15 02:14:20;;;;;;;8.00;6.05;;;;;;;17.92;92.85;101229.03;4894806;29;20127;-76
2023/08/15 02:16:46;;;;;;;8.57;6.80;;;;;;;17.91;93.23;101227.44;4929109;28;20134;-78
2023/08/15 02:19:12;;;;;;;9.38;6.25;;;;;;;17.94;93.34;101221.38;4895821;29;20036;-77
2023/08/15 02:21:37;;;;;;;16.52;8.55;;;;;;;17.90;94.02;101217.69;4931201;29;20047;-79
2023/08/15 02:24:03;;;;;;;9.02;6.40;;;;;;;17.87;93.61;101210.16;4909802;29;20035;-76
2023/08/15 02:26:29;;;;;;;7.43;5.95;;;;;;;17.86;93.32;101203.16;4913508;29;20067;-76
2023/08/15 02:28:55;;;;;;;10.63;6.65;;;;;;;17.89;93.29;101191.72;4932784;29;20051;-77
2023/08/15 02:31:21;;;;;;;9.35;6.00;;;;;;;17.89;93.33;101183.59;4894216;29;20095;-72
2023/08/15 02:33:47;;;;;;;8.68;5.82;;;;;;;17.88;93.53;101176.53;4909392;29;20512;-77
2023/08/15 02:36:13;;;;;;;12.93;7.43;;;;;;;17.86;94.24;101168.72;4926552;29;20070;-77
2023/08/15 02:38:38;;;;;;;11.05;8.45;;;;;;;17.81;94.02;101171.56;4909444;29;20050;-77
2023/08/15 02:41:05;;;;;;;9.00;7.00;;;;;;;17.84;93.65;101178.28;4911120;29;20035;-74
2023/08/15 02:43:30;;;;;;;10.68;7.43;;;;;;;17.85;93.73;101158.22;4909640;29;20087;-76
2023/08/15 02:45:58;;;;;;;10.32;7.03;;;;;;;17.82;93.72;101164.25;4912538;29;20031;-75
2023/08/15 02:48:25;;;;;;;9.30;5.85;;;;;;;17.79;93.62;101159.44;4911181;29;20130;-75
2023/08/15 02:50:51;;;;;;;8.18;7.15;;;;;;;17.74;93.62;101158.44;4910561;29;20382;-77
2023/08/15 02:53:16;;;;;;;8.57;6.82;;;;;;;17.76;93.71;101160.88;4898567;29;20497;-77
2023/08/15 02:55:42;;;;;;;10.18;7.07;;;;;;;17.79;93.52;101164.84;4895624;29;20040;-76
2023/08/15 02:58:08;;;;;;;11.23;7.05;;;;;;;17.75;94.60;101159.25;4923441;29;20047;-76
2023/08/15 03:00:35;;;;;;;9.45;7.93;;;;;;;17.76;94.18;101165.47;4903262;29;20050;-77
2023/08/15 03:03:01;;;;;;;10.52;6.70;;;;;;;17.74;93.97;101163.84;4899449;29;20047;-74
2023/08/15 03:05:27;;;;;;;8.52;6.07;;;;;;;17.72;93.73;101162.56;4891000;29;20115;-75
2023/08/15 03:07:53;;;;;;;8.20;5.75;;;;;;;17.73;93.70;101167.69;4926594;29;20187;-75
2023/08/15 03:10:18;;;;;;;10.18;7.07;;;;;;;17.73;94.60;101173.09;4919032;29;20552;-74
2023/08/15 03:12:46;;;;;;;12.43;7.43;;;;;;;17.76;94.44;101182.53;4912855;29;20044;-75
2023/08/15 03:15:12;;;;;;;12.93;6.85;;;;;;;17.79;94.35;101181.09;4900485;29;20519;-74
2023/08/15 03:17:38;;;;;;;12.13;8.80;;;;;;;17.82;94.79;101181.31;4929985;29;20472;-77
2023/08/15 03:20:06;;;;;;;11.85;7.18;;;;;;;17.87;95.49;101183.06;4915244;29;20035;-75
2023/08/15 03:22:32;;;;;;;10.77;8.88;;;;;;;17.91;95.53;101189.50;4898624;29;20036;-77
2023/08/15 03:24:58;;;;;;;12.13;8.77;;;;;;;17.93;96.47;101184.56;4906144;29;20408;-73
2023/08/15 03:27:23;;;;;;;11.50;9.02;;;;;;;18.00;97.26;101187.63;4933709;28;20737;-74
2023/08/15 03:29:49;;;;;;;11.90;9.55;;;;;;;17.99;97.07;101186.84;4911828;29;20801;-76
2023/08/15 03:32:14;;;;;;;13.02;8.82;;;;;;;18.05;96.65;101189.44;4896297;29;20043;-73
2023/08/15 03:34:40;;;;;;;10.10;9.07;;;;;;;18.10;97.35;101198.25;4912430;29;20476;-72
2023/08/15 03:37:06;;;;;;;11.20;8.52;;;;;;;18.12;97.66;101187.88;4910331;29;20517;-72
2023/08/15 03:39:33;;;;;;;15.93;10.35;;;;;;;18.15;97.62;101203.50;4930498;28;20405;-74
2023/08/15 03:41:58;;;;;;;11.45;8.75;;;;;;;18.19;97.72;101209.94;4918310;29;20123;-77
2023/08/15 03:44:24;;;;;;;11.80;9.52;;;;;;;18.22;97.76;101212.03;4913367;29;20122;-76
2023/08/15 03:46:50;;;;;;;12.15;9.10;;;;;;;18.22;97.42;101214.75;4910289;29;20035;-74
2023/08/15 03:49:16;;;;;;;10.45;8.88;;;;;;;18.25;97.59;101222.25;4928418;29;20040;-75
2023/08/15 03:51:41;;;;;;;13.73;10.57;;;;;;;18.28;97.48;101205.34;4915971;29;20073;-75
2023/08/15 03:54:08;;;;;;;10.75;8.13;;;;;;;18.28;97.52;101202.63;4918764;29;20043;-74
2023/08/15 03:56:35;;;;;;;14.18;9.82;;;;;;;18.32;97.38;101200.13;4929382;29;20036;-74
2023/08/15 03:59:01;;;;;;;10.23;8.50;;;;;;;18.32;97.36;101196.63;4931277;29;20086;-76
2023/08/15 04:01:27;;;;;;;10.60;7.45;;;;;;;18.32;97.21;101200.13;4932294;29;20087;-73
2023/08/15 04:03:53;;;;;;;10.35;7.47;;;;;;;18.34;96.92;101203.31;4916449;29;20038;-75
2023/08/15 04:06:19;;;;;;;12.60;9.15;;;;;;;18.37;96.93;101202.72;4897144;29;20032;-74
2023/08/15 04:08:45;;;;;;;12.05;9.68;;;;;;;18.39;97.08;101199.69;4934889;29;20043;-72
2023/08/15 04:11:13;;;;;;;9.38;8.02;;;;;;;18.41;97.18;101209.09;4915212;29;20512;-72
2023/08/15 04:13:39;;;;;;;10.55;8.57;;;;;;;18.43;97.03;101204.19;4892700;29;20039;-73
2023/08/15 04:16:06;;;;;;;11.25;9.13;;;;;;;18.45;97.10;101198.44;4898615;29;20576;-73
2023/08/15 04:18:35;;;;;;;12.02;9.88;;;;;;;18.46;97.06;101189.19;4907839;29;20039;-73
2023/08/15 04:21:01;;;;;;;11.27;9.07;;;;;;;18.43;97.26;101179.78;4899270;29;20047;-74
2023/08/15 04:23:27;;;;;;;10.15;8.05;;;;;;;18.49;97.02;101177.69;4899241;29;20032;-74
2023/08/15 04:25:52;;;;;;;11.05;9.85;;;;;;;18.47;97.04;101169.88;4931290;29;20166;-76
2023/08/15 04:28:18;;;;;;;12.40;8.35;;;;;;;18.49;96.94;101161.44;4912694;29;20043;-76
2023/08/15 04:30:44;;;;;;;10.32;8.80;;;;;;;18.50;96.82;101168.47;4908663;29;20075;-76
2023/08/15 04:33:11;;;;;;;12.30;9.05;;;;;;;18.52;96.95;101166.25;4917432;29;20035;-76
2023/08/15 04:35:39;;;;;;;9.55;7.90;;;;;;;18.54;96.58;101164.00;4913541;29;20063;-76
2023/08/15 04:38:05;;;;;;;11.10;9.32;;;;;;;18.57;96.51;101168.81;4900052;29;20072;-77
2023/08/15 04:40:40;;;;;;;10.80;8.38;;;;;;;18.59;96.50;101166.59;4931253;29;20041;-78
2023/08/15 04:43:08;;;;;;;12.48;10.13;;;;;;;18.59;96.60;101169.31;4931250;29;20040;-74
2023/08/15 04:45:40;;;;;;;12.38;10.02;;;;;;;18.60;96.93;101183.66;4894710;29;20042;-76
2023/08/15 04:48:10;;;;;;;11.57;9.30;;;;;;;18.62;96.51;101193.09;4906206;29;20055;-80
2023/08/15 04:50:37;;;;;;;10.85;8.98;;;;;;;18.62;96.71;101192.28;4920784;29;20036;-80
2023/08/15 04:53:03;;;;;;;11.85;8.35;;;;;;;18.60;96.57;101187.19;4912931;29;20086;-77
2023/08/15 04:55:31;;;;;;;10.35;8.40;;;;;;;18.63;96.71;101189.28;4918887;29;20065;-76
2023/08/15 04:57:56;;;;;;;12.23;9.55;;;;;;;18.63;96.61;101202.84;4897651;29;20726;-80
2023/08/15 05:00:22;;;;;;;10.70;9.02;;;;;;;18.68;96.70;101202.72;4922689;28;20433;-80
2023/08/15 05:02:48;;;;;;;12.80;8.77;;;;;;;18.74;96.87;101206.91;4907676;29;20036;-76
2023/08/15 05:05:14;;;;;;;10.20;8.07;;;;;;;18.79;96.80;101192.41;4913197;29;20046;-80
2023/08/15 05:07:40;;;;;;;12.02;9.75;;;;;;;18.81;96.63;101190.97;4899650;29;20052;-78
2023/08/15 05:10:08;;;;;;;11.68;8.27;;;;;;;18.85;96.48;101187.63;4919489;29;20446;-79
2023/08/15 05:12:36;;;;;;;9.10;8.15;;;;;;;18.90;96.65;101187.47;4926542;29;20069;-77
2023/08/15 05:15:03;;;;;;;11.65;8.70;;;;;;;18.91;96.48;101187.19;4908344;29;20808;-77
2023/08/15 05:17:28;;;;;;;12.52;9.15;;;;;;;18.94;96.33;101196.59;4925560;29;20130;-79
2023/08/15 05:19:54;;;;;;;10.32;8.27;;;;;;;18.97;96.19;101190.56;4903889;29;20532;-75
2023/08/15 05:22:20;;;;;;;11.20;8.10;;;;;;;19.00;96.25;101200.78;4915037;29;20071;-75
2023/08/15 05:24:47;;;;;;;9.98;8.02;;;;;;;19.02;96.17;101206.66;4901814;29;20522;-73
2023/08/15 05:27:13;;;;;;;13.70;8.35;;;;;;;19.05;96.23;101216.91;4895868;29;20036;-72
2023/08/15 05:29:43;;;;;;;10.50;7.88;;;;;;;19.09;96.15;101215.16;4902006;29;20048;-75
2023/08/15 05:32:10;;;;;;;14.32;9.80;;;;;;;19.10;95.88;101224.88;4901617;29;20066;-71
2023/08/15 05:34:35;;;;;;;9.50;7.93;;;;;;;19.14;95.89;101239.44;4917068;29;20066;-76
2023/08/15 05:37:01;;;;;;;10.35;8.50;;;;;;;19.17;95.88;101236.13;4918814;29;20071;-74
2023/08/15 05:39:27;;;;;;;11.10;7.97;;;;;;;19.24;95.71;101241.88;4913941;29;20043;-78
2023/08/15 05:41:52;;;;;;;8.93;7.47;;;;;;;19.30;95.64;101235.16;4897031;29;20040;-72
2023/08/15 05:44:18;;;;;;;9.75;7.47;;;;;;;19.39;95.61;101231.69;4930497;29;20046;-72
2023/08/15 05:46:44;;;;;;;11.65;7.40;;;;;;;19.48;95.58;101241.44;4927028;29;20510;-72
2023/08/15 05:49:09;;;;;;;12.13;8.13;;;;;;;19.60;95.99;101249.00;4914378;29;20053;-79
2023/08/15 05:51:35;;;;;;;10.43;7.57;;;;;;;19.68;95.67;101234.63;4933387;28;20065;-77
2023/08/15 05:54:01;;;;;;;11.38;8.30;;;;;;;19.80;95.29;101242.94;4916960;29;20035;-77
2023/08/15 05:56:26;;;;;;;13.13;7.75;;;;;;;19.95;94.81;101233.50;4933468;29;20069;-77
2023/08/15 05:58:52;;;;;;;9.43;7.97;;;;;;;20.04;94.39;101226.13;4910853;29;20032;-76
2023/08/15 06:01:20;;;;;;;10.05;7.65;;;;;;;20.14;93.30;101235.91;4894552;29;20096;-76
2023/08/15 06:03:47;;;;;;;9.65;8.40;;;;;;;20.26;93.08;101230.59;4909688;29;20046;-76
2023/08/15 06:06:13;;;;;;;11.48;7.60;;;;;;;20.37;92.82;101233.75;4899243;29;20042;-78
2023/08/15 06:08:39;;;;;;;11.20;7.90;;;;;;;20.45;92.44;101231.03;4926851;28;20456;-76
2023/08/15 06:11:05;;;;;;;10.07;6.97;;;;;;;20.54;91.94;101235.69;4932178;29;20031;-80
2023/08/15 06:13:31;;;;;;;7.40;6.50;;;;;;;20.61;91.74;101238.69;4922668;29;20032;-76
2023/08/15 06:15:57;;;;;;;11.05;6.57;;;;;;;20.64;91.53;101227.16;4923859;28;20438;-78
2023/08/15 06:18:22;;;;;;;8.20;6.13;;;;;;;20.66;90.67;101231.16;4912873;29;20036;-79
2023/08/15 06:20:49;;;;;;;8.98;6.63;;;;;;;20.69;91.67;101232.44;4892109;29;20062;-80
2023/08/15 06:23:14;;;;;;;8.20;5.88;;;;;;;20.69;91.12;101233.22;4924738;29;20058;-79
2023/08/15 06:25:40;;;;;;;10.80;6.80;;;;;;;20.73;90.91;101230.66;4907686;29;20047;-79
2023/08/15 06:28:08;;;;;;;7.57;6.00;;;;;;;20.79;90.55;101239.41;4908905;29;20045;-79
2023/08/15 06:30:34;;;;;;;7.20;5.72;;;;;;;20.81;90.72;101232.53;4915589;29;20035;-78
2023/08/15 06:33:00;;;;;;;10.13;6.95;;;;;;;20.82;90.58;101234.13;4933631;29;20047;-77
2023/08/15 06:35:28;;;;;;;8.00;6.45;;;;;;;20.87;90.60;101233.16;4915583;29;20043;-75
2023/08/15 06:37:54;;;;;;;9.45;6.28;;;;;;;20.89;90.11;101228.19;4924008;29;20039;-77
2023/08/15 06:40:19;;;;;;;7.75;5.90;;;;;;;20.91;89.93;101225.94;4908651;29;20489;-80
2023/08/15 06:42:45;;;;;;;6.60;5.63;;;;;;;20.96;90.19;101248.31;4932812;28;20055;-78
2023/08/15 06:45:11;;;;;;;6.70;5.28;;;;;;;20.98;90.04;101237.09;4916064;29;20027;-79
2023/08/15 06:47:39;;;;;;;7.20;5.80;;;;;;;20.99;90.51;101244.94;4928492;28;20035;-76
2023/08/15 06:50:06;;;;;;;6.78;5.18;;;;;;;21.04;91.25;101256.78;4913315;29;20051;-78
2023/08/15 06:52:33;;;;;;;9.80;5.70;;;;;;;21.06;91.38;101255.31;4914945;29;20073;-80
2023/08/15 06:54:59;;;;;;;6.53;5.80;;;;;;;21.10;91.07;101250.03;4911444;29;20032;-79
2023/08/15 06:57:24;;;;;;;6.38;5.00;;;;;;;21.13;90.93;101243.91;4912248;29;20032;-78
2023/08/15 06:59:50;;;;;;;5.95;5.32;;;;;;;21.20;90.86;101249.63;4929366;28;20046;-78
2023/08/15 07:02:15;;;;;;;7.03;5.93;;;;;;;21.24;90.93;101250.59;4926577;29;20030;-77
2023/08/15 07:04:41;;;;;;;8.02;5.85;;;;;;;21.31;90.97;101247.38;4913045;29;20027;-75
2023/08/15 07:07:08;;;;;;;10.77;6.07;;;;;;;21.39;91.03;101257.41;4925503;29;20036;-79
2023/08/15 07:09:35;;;;;;;7.07;4.82;;;;;;;21.44;89.62;101265.41;4939573;28;20039;-73
2023/08/15 07:12:05;;;;;;;7.40;4.72;;;;;;;21.49;88.36;101267.94;4909452;29;20517;-75
2023/08/15 07:14:31;;;;;;;7.25;4.82;;;;;;;21.52;88.51;101280.91;4897311;29;20062;-74
2023/08/15 07:16:57;;;;;;;7.47;5.47;;;;;;;21.51;88.75;101277.38;4917644;29;20074;-81
2023/08/15 07:19:23;;;;;;;7.10;4.93;;;;;;;21.51;88.51;101287.47;4925040;28;20499;-76
2023/08/15 07:21:49;;;;;;;7.85;5.60;;;;;;;21.51;88.46;101291.00;4911143;29;20102;-73
2023/08/15 07:24:15;;;;;;;6.68;4.72;;;;;;;21.48;88.75;101283.50;4912814;29;20158;-73
2023/08/15 07:26:41;;;;;;;6.55;5.15;;;;;;;21.48;89.74;101280.78;4928035;29;20040;-76
2023/08/15 07:29:06;;;;;;;8.15;4.82;;;;;;;21.46;87.87;101268.59;4921160;29;20086;-78
2023/08/15 07:31:32;;;;;;;4.72;4.10;;;;;;;21.44;88.82;101273.59;4912583;29;20028;-80
2023/08/15 07:33:58;;;;;;;9.02;4.95;;;;;;;21.40;89.00;101291.72;4912007;29;20035;-79
2023/08/15 07:36:24;;;;;;;6.03;4.50;;;;;;;21.36;88.96;101302.47;4899948;29;20036;-75
2023/08/15 07:38:50;;;;;;;6.63;4.95;;;;;;;21.33;88.95;101308.56;4910331;29;20051;-74
2023/08/15 07:41:15;;;;;;;10.75;4.93;;;;;;;21.28;88.91;101311.50;4927677;28;20038;-78
2023/08/15 07:43:41;;;;;;;7.40;5.38;;;;;;;21.25;88.81;101320.28;4910276;29;20158;-79
2023/08/15 07:46:07;;;;;;;8.10;5.10;;;;;;;21.25;88.67;101331.19;4929908;29;20047;-76
2023/08/15 07:48:32;;;;;;;9.27;6.00;;;;;;;21.18;88.63;101328.97;4914919;29;20414;-77
2023/08/15 07:50:58;;;;;;;8.18;5.10;;;;;;;21.19;89.01;101346.91;4930269;28;20433;-77
2023/08/15 07:53:24;;;;;;;9.02;5.13;;;;;;;21.18;88.92;101358.13;4914052;29;20043;-76
2023/08/15 07:55:51;;;;;;;8.90;5.28;;;;;;;21.16;89.53;101357.66;4901837;29;20043;-78
2023/08/15 07:58:17;;;;;;;7.50;5.30;;;;;;;21.12;89.89;101364.88;4895948;29;20037;-80
2023/08/15 08:00:43;;;;;;;7.97;5.35;;;;;;;21.08;90.08;101372.91;4928829;28;20118;-77
2023/08/15 08:03:09;;;;;;;9.32;6.15;;;;;;;21.03;90.33;101364.91;4913467;29;20040;-77
2023/08/15 08:05:35;;;;;;;7.35;5.68;;;;;;;21.02;90.85;101362.50;4910139;29;20143;-77
2023/08/15 08:08:04;;;;;;;11.00;6.50;;;;;;;20.99;92.15;101366.66;4899531;29;20042;-74
2023/08/15 08:10:33;;;;;;;8.38;6.40;;;;;;;20.94;92.04;101364.94;4911361;29;20046;-79
2023/08/15 08:12:59;;;;;;;13.45;7.10;;;;;;;20.92;92.71;101361.72;4923561;29;20040;-79
2023/08/15 08:15:27;;;;;;;7.47;5.82;;;;;;;20.88;92.38;101366.22;4906672;29;20040;-76
2023/08/15 08:17:52;;;;;;;8.23;6.93;;;;;;;20.89;92.81;101376.00;4918068;29;20031;-78
2023/08/15 08:20:18;;;;;;;8.85;6.00;;;;;;;20.86;93.04;101376.66;4930866;29;20588;-78
2023/08/15 08:22:44;;;;;;;7.40;5.75;;;;;;;20.82;93.92;101370.25;4921248;29;20123;-76
2023/08/15 08:25:21;;;;;;;7.60;5.63;;;;;;;20.81;93.80;101360.47;4935451;29;20039;-76
2023/08/15 08:27:47;;;;;;;7.85;6.65;;;;;;;20.79;94.22;101370.06;4912667;29;20050;-77
2023/08/15 08:30:20;;;;;;;8.65;7.00;;;;;;;20.78;94.26;101373.94;4904131;29;20066;-76
2023/08/15 08:32:47;;;;;;;10.23;6.90;;;;;;;20.79;94.21;101370.88;4914810;29;20055;-75
2023/08/15 08:35:16;;;;;;;8.93;7.10;;;;;;;20.78;94.58;101360.31;4895764;29;20039;-77
2023/08/15 08:37:44;;;;;;;9.23;6.75;;;;;;;20.80;95.32;101347.19;4907221;29;20039;-77
2023/08/15 08:40:12;;;;;;;10.40;6.78;;;;;;;20.83;95.54;101341.09;4916050;29;20041;-75
2023/08/15 08:42:40;;;;;;;10.45;7.50;;;;;;;20.81;95.75;101333.25;4917392;29;20039;-74
2023/08/15 08:45:08;;;;;;;9.98;7.40;;;;;;;20.85;95.89;101341.56;4923637;29;20040;-73
2023/08/15 08:47:34;;;;;;;8.77;6.85;;;;;;;20.86;96.45;101337.72;4927492;29;20032;-79
2023/08/15 08:50:00;;;;;;;9.32;6.70;;;;;;;20.87;96.32;101345.56;4926844;29;20032;-77
2023/08/15 08:52:30;;;;;;;10.13;7.90;;;;;;;20.94;97.68;101345.88;4912142;29;20042;-81
2023/08/15 08:54:56;;;;;;;11.98;8.23;;;;;;;20.97;98.12;101356.09;4926542;29;20067;-75
2023/08/15 08:57:25;;;;;;;13.82;8.43;;;;;;;21.00;97.92;101365.56;4948971;28;20238;-74
2023/08/15 08:59:52;;;;;;;11.40;7.13;;;;;;;21.05;97.83;101372.75;4893621;29;20043;-79
2023/08/15 09:02:21;;;;;;;8.70;6.97;;;;;;;21.06;97.78;101380.59;4917124;29;20517;-75
2023/08/15 09:04:48;;;;;;;9.07;7.57;;;;;;;21.09;98.54;101384.59;4924139;29;20403;-76
2023/08/15 09:07:15;;;;;;;9.38;8.35;;;;;;;21.12;98.35;101378.50;4919637;29;20027;-77
2023/08/15 09:09:41;;;;;;;9.35;7.65;;;;;;;21.15;97.27;101361.50;4927419;28;20296;-76
2023/08/15 09:12:07;;;;;;;10.68;7.80;;;;;;;21.21;97.26;101346.59;4933791;29;20635;-77
2023/08/15 09:14:41;;;;;;;11.32;7.95;;;;;;;21.30;96.88;101368.38;4917716;29;20052;-78
2023/08/15 09:17:09;;;;;;;10.20;8.77;;;;;;;21.36;97.76;101376.03;4904953;29;20139;-78
2023/08/15 09:19:39;;;;;;;8.40;7.25;;;;;;;21.33;95.59;101363.06;4929322;29;20036;-76
2023/08/15 09:22:04;;;;;;;11.25;7.70;;;;;;;21.38;96.16;101367.53;4932166;29;20038;-79
2023/08/15 09:24:31;;;;;;;10.85;7.35;;;;;;;21.45;97.59;101360.44;4933044;28;20023;-75
2023/08/15 09:27:04;;;;;;;11.88;8.18;;;;;;;21.48;95.78;101367.97;4915143;29;20549;-77
2023/08/15 09:29:34;;;;;;;9.30;6.15;;;;;;;21.53;96.11;101367.78;4909683;29;20545;-77
2023/08/15 09:32:00;;;;;;;9.23;7.10;;;;;;;21.56;96.28;101354.63;4912051;29;20046;-77
2023/08/15 09:34:26;;;;;;;8.13;6.25;;;;;;;21.60;95.29;101355.56;4913856;29;20039;-78
2023/08/15 09:36:52;;;;;;;10.00;7.75;;;;;;;21.68;95.35;101352.81;4927253;28;20032;-75
2023/08/15 09:39:17;;;;;;;9.60;5.93;;;;;;;21.70;94.10;101355.19;4921073;29;20054;-76
2023/08/15 09:41:46;;;;;;;10.63;6.18;;;;;;;21.72;93.92;101353.72;4896308;29;20374;-78
2023/08/15 09:44:12;;;;;;;9.85;6.70;;;;;;;21.75;93.80;101358.53;4930166;28;20047;-78
2023/08/15 09:46:39;;;;;;;7.93;5.53;;;;;;;21.91;93.63;101356.00;4929154;29;20051;-77
2023/08/15 09:49:05;;;;;;;9.98;6.13;;;;;;;22.04;92.25;101367.81;4916081;29;20059;-80
2023/08/15 09:51:33;;;;;;;7.35;5.68;;;;;;;22.34;92.72;101361.16;4931464;29;20035;-77
2023/08/15 09:54:00;;;;;;;10.15;6.35;;;;;;;22.61;93.66;101373.44;4926365;29;20040;-79
2023/08/15 09:56:25;;;;;;;8.43;6.45;;;;;;;22.74;91.74;101360.63;4934176;29;20035;-77
2023/08/15 09:58:52;;;;;;;6.45;4.95;;;;;;;22.90;90.11;101360.84;4911012;29;20039;-79
2023/08/15 10:01:19;;;;;;;7.95;6.03;;;;;;;23.05;89.65;101364.84;4924777;29;20035;-77
2023/08/15 10:03:46;;;;;;;7.63;5.00;;;;;;;23.23;89.96;101365.41;4922836;29;20051;-78
2023/08/15 10:06:13;;;;;;;8.25;5.80;;;;;;;23.33;86.96;101354.06;4928147;29;20042;-77
2023/08/15 10:08:42;;;;;;;6.55;4.72;;;;;;;23.44;85.73;101366.13;4924659;29;20039;-77
2023/08/15 10:11:09;;;;;;;7.97;5.45;;;;;;;23.54;85.74;101371.13;4914029;29;20043;-79
2023/08/15 10:13:37;;;;;;;9.38;5.65;;;;;;;23.68;84.02;101362.63;4910477;29;20250;-76
2023/08/15 10:16:05;;;;;;;6.97;5.03;;;;;;;23.62;83.59;101372.97;4897618;29;20032;-76
2023/08/15 10:18:31;;;;;;;8.90;4.80;;;;;;;23.64;83.68;101370.72;4910200;29;20042;-76
2023/08/15 10:21:00;;;;;;;7.85;4.57;;;;;;;23.63;84.22;101363.63;4927255;29;20035;-78
2023/08/15 10:23:29;;;;;;;6.13;4.85;;;;;;;23.82;84.68;101370.47;4925945;28;20153;-76
2023/08/15 10:25:56;;;;;;;9.13;5.00;;;;;;;23.81;83.62;101366.13;4922588;29;20083;-77
2023/08/15 10:28:22;;;;;;;7.10;4.30;;;;;;;23.81;82.02;101364.19;4913958;29;20031;-78
2023/08/15 10:30:48;;;;;;;7.32;5.15;;;;;;;23.88;86.03;101374.56;4908211;29;20063;-80
2023/08/15 10:33:17;;;;;;;7.80;5.25;;;;;;;23.89;84.30;101376.94;4930781;29;20501;-77
2023/08/15 10:35:50;;;;;;;8.35;4.20;;;;;;;24.00;82.65;101379.22;4933074;29;20050;-79
2023/08/15 10:38:22;;;;;;;7.38;5.78;;;;;;;24.20;82.82;101387.25;4914867;29;20170;-76
2023/08/15 10:40:50;;;;;;;7.65;4.90;;;;;;;24.43;82.26;101384.00;4934006;29;20038;-79
2023/08/15 10:43:17;;;;;;;6.75;4.90;;;;;;;24.62;81.40;101381.44;4925653;29;20086;-78
2023/08/15 10:45:52;;;;;;;7.38;4.93;;;;;;;24.69;79.60;101381.63;4898738;29;20046;-77
2023/08/15 10:48:56;;;;;;;5.28;4.22;;;;;;;24.84;78.92;101387.47;4899546;29;20447;-79
2023/08/15 10:51:24;;;;;;;6.15;4.43;;;;;;;24.91;77.84;101382.97;4912029;29;20043;-76
2023/08/15 10:54:13;;;;;;;7.75;4.60;;;;;;;25.02;77.38;101383.28;4911383;29;20150;-77
2023/08/15 10:56:40;;;;;;;4.65;3.40;;;;;;;25.05;76.80;101379.84;4922830;29;20103;-80
2023/08/15 10:59:12;;;;;;;6.07;4.00;;;;;;;24.96;77.84;101368.25;4903417;29;20046;-78
2023/08/15 11:01:40;;;;;;;6.05;4.50;;;;;;;24.83;75.83;101383.94;4898118;29;20500;-79
2023/08/15 11:04:08;;;;;;;7.20;4.82;;;;;;;24.75;77.25;101384.91;4929261;29;20043;-75
2023/08/15 11:07:03;;;;;;;6.68;4.60;;;;;;;24.71;77.03;101389.47;4912437;29;20032;-74
2023/08/15 11:09:29;;;;;;;6.05;5.20;;;;;;;24.55;77.02;101392.19;4920735;29;20048;-76
2023/08/15 11:12:04;;;;;;;5.78;4.57;;;;;;;24.45;78.68;101385.28;4908835;29;20038;-77
2023/08/15 11:14:30;;;;;;;5.68;5.18;;;;;;;24.59;79.14;101382.13;4915413;29;20078;-79
2023/08/15 11:16:56;;;;;;;7.55;5.10;;;;;;;24.58;78.11;101394.22;4933709;29;20069;-77
2023/08/15 11:19:22;;;;;;;7.00;5.88;;;;;;;24.53;77.78;101399.16;4929459;29;20703;-79
2023/08/15 11:21:48;;;;;;;7.28;5.85;;;;;;;24.43;77.95;101389.50;4906487;29;20027;-78